createdAt,value
2023-02-06T00:01:20.040Z,23.43
2023-02-06T00:03:46.962Z,25.10
2023-02-06T00:06:14.191Z,27.57
2023-02-06T00:08:41.478Z,11.97
2023-02-06T00:11:12.244Z,14.93
2023-02-06T00:13:39.467Z,18.33
2023-02-06T00:16:18.557Z,26.50
2023-02-06T00:18:45.543Z,26.10
2023-02-06T00:21:12.874Z,26.87
2023-02-06T00:23:39.937Z,20.27
2023-02-06T00:26:07.741Z,20.57
2023-02-06T00:28:35.159Z,26.20
2023-02-06T00:31:02.209Z,18.07
2023-02-06T00:33:29.197Z,16.00
2023-02-06T00:35:56.076Z,24.20
2023-02-06T00:38:23.005Z,30.07
2023-02-06T00:40:49.995Z,26.00
2023-02-06T00:43:16.924Z,24.43
2023-02-06T00:45:43.917Z,28.67
2023-02-06T00:48:10.884Z,22.90
2023-02-06T00:50:37.874Z,17.00
2023-02-06T00:53:04.825Z,31.13
2023-02-06T00:55:31.790Z,30.03
2023-02-06T00:57:58.685Z,21.50
2023-02-06T01:00:25.734Z,23.17
2023-02-06T01:02:52.810Z,18.33
2023-02-06T01:05:20.775Z,26.60
2023-02-06T01:07:47.721Z,23.63
2023-02-06T01:10:14.847Z,21.87
2023-02-06T01:12:42.144Z,25.63
2023-02-06T01:15:12.362Z,18.30
2023-02-06T01:17:41.165Z,25.87
2023-02-06T01:20:12.133Z,27.97
2023-02-06T01:22:39.620Z,23.57
2023-02-06T01:25:07.049Z,33.67
2023-02-06T01:27:37.471Z,29.63
2023-02-06T01:30:07.431Z,25.33
2023-02-06T01:32:41.799Z,24.37
2023-02-06T01:35:12.740Z,32.30
2023-02-06T01:37:41.485Z,31.93
2023-02-06T01:40:14.277Z,26.63
2023-02-06T01:42:42.047Z,20.73
2023-02-06T01:45:36.136Z,24.63
2023-02-06T01:48:11.464Z,33.87
2023-02-06T01:50:42.198Z,64.27
2023-02-06T01:53:10.666Z,19.43
2023-02-06T01:55:40.902Z,26.20
2023-02-06T01:58:10.564Z,20.93
2023-02-06T02:00:37.822Z,26.83
2023-02-06T02:03:05.527Z,24.70
2023-02-06T02:05:33.747Z,23.23
2023-02-06T02:08:16.722Z,23.83
2023-02-06T02:10:43.726Z,24.60
2023-02-06T02:13:10.643Z,20.23
2023-02-06T02:16:15.951Z,29.20
2023-02-06T02:18:50.897Z,32.00
2023-02-06T02:22:08.745Z,20.13
2023-02-06T02:25:11.880Z,23.80
2023-02-06T02:28:29.570Z,24.20
2023-02-06T02:31:30.753Z,22.17
2023-02-06T02:34:06.512Z,27.83
2023-02-06T02:37:17.809Z,21.03
2023-02-06T02:40:20.143Z,22.30
2023-02-06T02:43:07.320Z,28.27
2023-02-06T02:46:15.229Z,21.07
2023-02-06T02:48:46.177Z,13.97
2023-02-06T02:51:13.745Z,25.07
2023-02-06T02:53:41.590Z,20.83
2023-02-06T02:56:27.544Z,19.77
2023-02-06T02:59:30.821Z,13.93
2023-02-06T03:02:08.013Z,21.23
2023-02-06T03:04:46.483Z,21.87
2023-02-06T03:07:33.860Z,21.00
2023-02-06T03:10:19.331Z,19.77
2023-02-06T03:13:17.481Z,21.80
2023-02-06T03:16:20.045Z,10.93
2023-02-06T03:19:00.295Z,13.43
2023-02-06T03:21:29.340Z,32.40
2023-02-06T03:24:03.835Z,24.33
2023-02-06T03:26:31.682Z,24.93
2023-02-06T03:29:06.339Z,25.90
2023-02-06T03:31:39.975Z,27.33
2023-02-06T03:34:22.053Z,16.43
2023-02-06T03:36:50.534Z,24.83
2023-02-06T03:39:17.490Z,31.13
2023-02-06T03:41:45.586Z,15.93
2023-02-06T03:44:19.837Z,19.20
2023-02-06T03:46:47.785Z,28.67
2023-02-06T03:49:16.433Z,30.93
2023-02-06T03:51:56.939Z,28.40
2023-02-06T03:54:26.015Z,27.07
2023-02-06T03:57:03.416Z,23.43
2023-02-06T03:59:31.557Z,28.33
2023-02-06T04:02:02.952Z,49.37
2023-02-06T04:04:36.118Z,41.43
2023-02-06T04:07:17.177Z,42.87
2023-02-06T04:09:44.211Z,37.17
2023-02-06T04:12:11.513Z,30.47
2023-02-06T04:14:38.483Z,17.17
2023-02-06T04:17:06.573Z,28.20
2023-02-06T04:19:34.411Z,31.43
2023-02-06T04:22:01.904Z,19.67
2023-02-06T04:24:30.968Z,77.73
2023-02-06T04:26:58.433Z,33.43
2023-02-06T04:29:25.675Z,74.77
2023-02-06T04:31:52.617Z,48.70
2023-02-06T04:34:19.624Z,61.20
2023-02-06T04:36:46.519Z,26.13
2023-02-06T04:39:13.550Z,30.23
2023-02-06T04:41:40.569Z,40.30
2023-02-06T04:44:07.503Z,55.23
2023-02-06T04:46:34.938Z,33.50
2023-02-06T04:49:01.985Z,16.03
2023-02-06T04:51:28.972Z,42.40
2023-02-06T04:53:55.980Z,30.97
2023-02-06T04:56:23.797Z,40.00
2023-02-06T04:58:50.779Z,30.37
2023-02-06T05:01:18.398Z,15.47
2023-02-06T05:03:46.020Z,33.33
2023-02-06T05:06:13.496Z,46.40
2023-02-06T05:08:40.969Z,22.67
2023-02-06T05:11:08.489Z,29.43
2023-02-06T05:13:35.558Z,61.10
2023-02-06T05:16:13.330Z,31.90
2023-02-06T05:18:41.313Z,38.50
2023-02-06T05:21:08.494Z,30.23
2023-02-06T05:23:35.460Z,14.67
2023-02-06T05:26:03.060Z,63.03
2023-02-06T05:28:33.267Z,71.90
2023-02-06T05:31:01.457Z,25.17
2023-02-06T05:33:29.104Z,26.13
2023-02-06T05:36:07.064Z,44.77
2023-02-06T05:38:34.569Z,44.97
2023-02-06T05:41:01.684Z,25.87
2023-02-06T05:43:28.623Z,33.67
2023-02-06T05:45:55.516Z,29.60
2023-02-06T05:48:22.491Z,23.87
2023-02-06T05:50:50.083Z,28.60
2023-02-06T05:53:18.110Z,21.70
2023-02-06T05:55:45.085Z,17.80
2023-02-06T05:58:12.474Z,58.00
2023-02-06T06:00:39.480Z,29.53
2023-02-06T06:03:06.425Z,15.63
2023-02-06T06:05:33.625Z,23.07
2023-02-06T06:08:00.725Z,23.10
2023-02-06T06:10:27.820Z,25.60
2023-02-06T06:12:54.996Z,24.53
2023-02-06T06:15:21.940Z,16.63
2023-02-06T06:17:49.005Z,15.97
2023-02-06T06:20:15.991Z,27.10
2023-02-06T06:22:42.911Z,34.87
2023-02-06T06:25:09.868Z,26.10
2023-02-06T06:27:36.815Z,39.83
2023-02-06T06:30:04.074Z,42.63
2023-02-06T06:32:31.118Z,47.33
2023-02-06T06:34:58.104Z,56.73
2023-02-06T06:37:25.213Z,21.23
2023-02-06T06:39:52.165Z,61.37
2023-02-06T06:42:19.134Z,45.40
2023-02-06T06:44:46.096Z,39.70
2023-02-06T06:47:13.066Z,37.50
2023-02-06T06:49:39.968Z,33.50
2023-02-06T06:52:13.352Z,55.87
2023-02-06T06:54:46.975Z,37.53
2023-02-06T06:57:13.947Z,58.40
2023-02-06T06:59:40.943Z,24.73
2023-02-06T07:02:08.419Z,42.53
2023-02-06T07:04:35.274Z,24.87
2023-02-06T07:07:02.359Z,31.20
2023-02-06T07:09:29.280Z,27.67
2023-02-06T07:11:56.263Z,24.50
2023-02-06T07:14:23.237Z,40.80
2023-02-06T07:16:50.203Z,38.20
2023-02-06T07:19:17.497Z,31.43
2023-02-06T07:21:44.473Z,30.67
2023-02-06T07:24:11.345Z,38.30
2023-02-06T07:26:38.322Z,37.03
2023-02-06T07:29:05.185Z,60.60
2023-02-06T07:31:32.329Z,28.87
2023-02-06T07:34:00.631Z,31.57
2023-02-06T07:36:27.635Z,38.40
2023-02-06T07:38:54.612Z,29.03
2023-02-06T07:41:21.559Z,32.60
2023-02-06T07:43:48.499Z,24.30
2023-02-06T07:46:15.765Z,29.07
2023-02-06T07:48:42.812Z,36.50
2023-02-06T07:51:09.899Z,28.47
2023-02-06T07:53:37.309Z,36.47
2023-02-06T07:56:17.900Z,41.27
2023-02-06T07:58:47.236Z,30.83
2023-02-06T08:01:14.291Z,36.03
2023-02-06T08:03:41.294Z,40.00
2023-02-06T08:06:14.614Z,34.50
2023-02-06T08:08:43.016Z,50.43
2023-02-06T08:11:16.929Z,45.73
2023-02-06T08:13:43.941Z,32.60
2023-02-06T08:16:15.248Z,56.43
2023-02-06T08:18:42.718Z,41.40
2023-02-06T08:21:20.603Z,37.53
2023-02-06T08:23:53.366Z,71.63
2023-02-06T08:26:21.728Z,50.77
2023-02-06T08:28:51.083Z,62.57
2023-02-06T08:31:24.434Z,61.50
2023-02-06T08:33:51.777Z,51.97
2023-02-06T08:36:21.083Z,53.37
2023-02-06T08:38:48.646Z,57.60
2023-02-06T08:41:19.821Z,54.23
2023-02-06T08:43:48.667Z,43.77
2023-02-06T08:46:18.852Z,51.63
2023-02-06T08:48:46.561Z,52.53
2023-02-06T08:51:14.421Z,43.93
2023-02-06T08:53:41.617Z,37.13
2023-02-06T08:56:13.402Z,45.67
2023-02-06T08:58:40.527Z,41.77
2023-02-06T09:01:14.336Z,58.93
2023-02-06T09:03:44.816Z,43.63
2023-02-06T09:06:13.546Z,69.40
2023-02-06T09:08:41.272Z,56.73
2023-02-06T09:11:17.506Z,63.27
2023-02-06T09:13:49.108Z,63.10
2023-02-06T09:16:19.023Z,61.43
2023-02-06T09:18:46.709Z,71.10
2023-02-06T09:21:20.805Z,64.27
2023-02-06T09:23:54.207Z,49.03
2023-02-06T09:26:25.716Z,60.23
2023-02-06T09:28:58.196Z,62.73
2023-02-06T09:31:32.721Z,71.73
2023-02-06T09:34:02.962Z,56.10
2023-02-06T09:36:30.611Z,67.10
2023-02-06T09:38:58.127Z,56.93
2023-02-06T09:41:37.437Z,87.47
2023-02-06T09:44:15.774Z,63.83
2023-02-06T09:47:05.383Z,60.63
2023-02-06T09:49:37.651Z,59.80
2023-02-06T09:52:58.004Z,51.40
2023-02-06T09:55:43.712Z,43.43
2023-02-06T09:58:33.945Z,51.20
2023-02-06T10:01:14.417Z,53.60
2023-02-06T10:03:54.448Z,55.13
2023-02-06T10:06:26.970Z,39.20
2023-02-06T10:09:03.967Z,56.70
2023-02-06T10:12:27.593Z,50.40
2023-02-06T10:15:13.358Z,53.47
2023-02-06T10:18:05.535Z,59.13
2023-02-06T10:20:41.505Z,61.17
2023-02-06T10:23:34.242Z,54.17
2023-02-06T10:26:18.174Z,52.70
2023-02-06T10:28:51.242Z,54.77
2023-02-06T10:31:24.295Z,51.43
2023-02-06T10:34:12.175Z,88.00
2023-02-06T10:37:25.383Z,63.10
2023-02-06T10:40:05.642Z,66.73
2023-02-06T10:43:00.480Z,69.70
2023-02-06T10:45:42.204Z,55.57
2023-02-06T10:48:32.913Z,55.57
2023-02-06T10:51:21.030Z,54.90
2023-02-06T10:54:23.374Z,58.60
2023-02-06T10:56:52.743Z,44.93
2023-02-06T10:59:32.845Z,56.33
2023-02-06T11:03:07.168Z,41.97
2023-02-06T11:05:35.826Z,65.10
2023-02-06T11:08:27.828Z,49.27
2023-02-06T11:10:55.600Z,43.20
2023-02-06T11:13:27.392Z,66.50
2023-02-06T11:16:09.599Z,71.93
2023-02-06T11:18:43.299Z,62.00
2023-02-06T11:21:13.180Z,57.03
2023-02-06T11:23:42.113Z,63.93
2023-02-06T11:26:16.590Z,85.60
2023-02-06T11:28:55.470Z,77.57
2023-02-06T11:31:46.651Z,86.63
2023-02-06T11:34:28.760Z,63.27
2023-02-06T11:37:06.126Z,59.50
2023-02-06T11:39:39.138Z,62.90
2023-02-06T11:42:23.359Z,72.87
2023-02-06T11:44:50.722Z,70.93
2023-02-06T11:47:36.576Z,62.73
2023-02-06T11:50:13.526Z,57.57
2023-02-06T11:52:46.783Z,73.87
2023-02-06T11:55:34.174Z,67.10
2023-02-06T11:58:29.295Z,70.87
2023-02-06T12:01:02.832Z,51.33
2023-02-06T12:03:39.300Z,64.63
2023-02-06T12:06:18.804Z,69.97
2023-02-06T12:08:56.234Z,59.30
2023-02-06T12:11:39.814Z,56.87
2023-02-06T12:14:16.877Z,74.57
2023-02-06T12:16:46.277Z,68.43
2023-02-06T12:19:24.243Z,58.77
2023-02-06T12:21:58.045Z,57.67
2023-02-06T12:24:32.323Z,44.13
2023-02-06T12:27:05.935Z,44.30
2023-02-06T12:29:40.381Z,61.93
2023-02-06T12:32:20.930Z,55.83
2023-02-06T12:35:00.585Z,52.97
2023-02-06T12:37:48.329Z,64.10
2023-02-06T12:41:21.164Z,55.27
2023-02-06T12:43:58.721Z,55.70
2023-02-06T12:46:27.838Z,46.63
2023-02-06T12:49:26.208Z,56.37
2023-02-06T12:52:24.487Z,46.10
2023-02-06T12:55:02.180Z,52.33
2023-02-06T12:57:31.416Z,43.53
2023-02-06T13:00:27.336Z,52.47
2023-02-06T13:03:33.295Z,45.40
2023-02-06T13:06:24.544Z,35.67
2023-02-06T13:09:02.874Z,48.13
2023-02-06T13:11:38.883Z,41.13
2023-02-06T13:14:24.341Z,33.73
2023-02-06T13:17:00.053Z,43.17
2023-02-06T13:19:42.028Z,31.10
2023-02-06T13:22:12.984Z,30.37
2023-02-06T13:24:42.330Z,32.80
2023-02-06T13:27:09.086Z,31.13
2023-02-06T13:29:51.558Z,39.23
2023-02-06T13:32:18.469Z,21.77
2023-02-06T13:34:53.812Z,27.27
2023-02-06T13:37:37.554Z,30.90
2023-02-06T13:40:24.067Z,20.70
2023-02-06T13:43:14.532Z,30.80
2023-02-06T13:45:57.579Z,28.53
2023-02-06T13:48:52.333Z,28.73
2023-02-06T13:51:50.300Z,24.30
2023-02-06T13:54:39.112Z,23.83
2023-02-06T13:57:51.943Z,22.67
2023-02-06T14:00:30.075Z,19.70
2023-02-06T14:03:06.003Z,22.07
2023-02-06T14:06:07.965Z,23.33
2023-02-06T14:09:04.855Z,20.03
2023-02-06T14:12:02.178Z,28.23
2023-02-06T14:15:33.341Z,21.10
2023-02-06T14:18:21.040Z,21.93
2023-02-06T14:21:24.474Z,19.47
2023-02-06T14:24:27.946Z,20.23
2023-02-06T14:27:39.818Z,19.93
2023-02-06T14:30:18.813Z,27.37
2023-02-06T14:33:11.435Z,25.17
2023-02-06T14:36:05.189Z,23.60
2023-02-06T14:39:44.715Z,23.23
2023-02-06T14:42:33.347Z,27.87
2023-02-06T14:45:09.469Z,16.67
2023-02-06T14:47:42.648Z,25.00
2023-02-06T14:50:35.716Z,23.90
2023-02-06T14:53:31.265Z,15.63
2023-02-06T14:56:25.501Z,18.30
2023-02-06T14:58:52.411Z,19.33
2023-02-06T15:01:26.809Z,19.07
2023-02-06T15:04:14.622Z,21.03
2023-02-06T15:06:50.377Z,11.73
2023-02-06T15:09:26.404Z,15.30
2023-02-06T15:11:59.657Z,30.10
2023-02-06T15:14:31.172Z,20.93
2023-02-06T15:17:02.552Z,14.37
2023-02-06T15:19:35.402Z,13.23
2023-02-06T15:22:30.290Z,14.73
2023-02-06T15:25:28.700Z,12.50
2023-02-06T15:28:06.494Z,16.57
2023-02-06T15:30:35.684Z,13.10
2023-02-06T15:33:03.636Z,11.30
2023-02-06T15:35:39.068Z,11.30
2023-02-06T15:38:15.581Z,17.33
2023-02-06T15:40:53.564Z,12.50
2023-02-06T15:43:25.434Z,13.77
2023-02-06T15:46:01.723Z,14.27
2023-02-06T15:48:38.602Z,12.33
2023-02-06T15:51:08.457Z,12.27
2023-02-06T15:53:39.201Z,12.70
2023-02-06T15:56:25.938Z,10.90
2023-02-06T15:59:14.597Z,8.33
2023-02-06T16:01:42.917Z,17.33
2023-02-06T16:04:22.009Z,11.47
2023-02-06T16:07:23.969Z,11.57
2023-02-06T16:10:04.445Z,11.43
2023-02-06T16:12:41.805Z,13.47
2023-02-06T16:15:38.159Z,17.37
2023-02-06T16:18:23.719Z,14.90
2023-02-06T16:20:50.875Z,12.47
2023-02-06T16:23:28.620Z,14.90
2023-02-06T16:26:15.673Z,12.33
2023-02-06T16:29:19.245Z,18.37
2023-02-06T16:31:55.047Z,12.00
2023-02-06T16:34:38.532Z,19.10
2023-02-06T16:37:12.057Z,15.53
2023-02-06T16:39:42.370Z,15.70
2023-02-06T16:42:27.166Z,7.70
2023-02-06T16:45:00.787Z,14.87
2023-02-06T16:47:28.046Z,29.83
2023-02-06T16:49:55.079Z,20.97
2023-02-06T16:52:28.974Z,13.77
2023-02-06T16:54:58.964Z,15.90
2023-02-06T16:57:34.941Z,13.00
2023-02-06T17:00:26.711Z,13.47
2023-02-06T17:02:54.727Z,15.20
2023-02-06T17:05:27.434Z,13.30
2023-02-06T17:07:55.350Z,15.30
2023-02-06T17:10:25.362Z,15.83
2023-02-06T17:12:53.208Z,24.00
2023-02-06T17:15:20.901Z,16.40
2023-02-06T17:17:47.811Z,14.03
2023-02-06T17:20:38.355Z,18.53
2023-02-06T17:23:05.832Z,24.77
2023-02-06T17:25:33.759Z,21.60
2023-02-06T17:28:01.423Z,20.93
2023-02-06T17:30:28.495Z,18.73
2023-02-06T17:32:56.303Z,17.27
2023-02-06T17:35:23.820Z,22.17
2023-02-06T17:37:51.616Z,23.50
2023-02-06T17:40:24.342Z,27.37
2023-02-06T17:42:51.351Z,21.43
2023-02-06T17:45:18.602Z,16.77
2023-02-06T17:47:45.566Z,19.70
2023-02-06T17:50:20.341Z,18.77
2023-02-06T17:52:47.520Z,17.63
2023-02-06T17:55:15.391Z,15.60
2023-02-06T17:57:42.270Z,26.20
2023-02-06T18:00:15.709Z,12.83
2023-02-06T18:02:42.933Z,19.60
2023-02-06T18:05:10.013Z,25.47
2023-02-06T18:07:40.510Z,20.77
2023-02-06T18:10:09.152Z,47.93
2023-02-06T18:12:36.125Z,45.60
2023-02-06T18:15:05.040Z,35.30
2023-02-06T18:17:33.399Z,44.80
2023-02-06T18:20:00.704Z,41.00
2023-02-06T18:22:27.588Z,47.20
2023-02-06T18:24:54.499Z,51.47
2023-02-06T18:27:23.073Z,53.37
2023-02-06T18:29:52.613Z,50.73
2023-02-06T18:32:19.581Z,47.80
2023-02-06T18:34:47.052Z,33.27
2023-02-06T18:37:14.589Z,39.43
2023-02-06T18:39:41.701Z,27.80
2023-02-06T18:42:28.859Z,29.93
2023-02-06T18:44:55.841Z,30.77
2023-02-06T18:47:22.804Z,23.33
2023-02-06T18:49:49.911Z,17.00
2023-02-06T18:52:17.815Z,18.40
2023-02-06T18:54:44.944Z,17.00
2023-02-06T18:57:11.840Z,16.97
2023-02-06T18:59:38.715Z,18.70
2023-02-06T19:02:06.621Z,16.50
2023-02-06T19:04:35.860Z,18.03
2023-02-06T19:07:02.774Z,22.73
2023-02-06T19:09:29.675Z,22.00
2023-02-06T19:11:56.594Z,18.57
2023-02-06T19:14:25.342Z,20.70
2023-02-06T19:16:54.508Z,17.80
2023-02-06T19:19:21.900Z,22.40
2023-02-06T19:21:48.998Z,17.70
2023-02-06T19:24:18.681Z,19.43
2023-02-06T19:26:46.260Z,20.30
2023-02-06T19:29:34.414Z,23.53
2023-02-06T19:32:04.755Z,18.70
2023-02-06T19:34:34.633Z,12.40
2023-02-06T19:37:04.522Z,20.80
2023-02-06T19:39:34.045Z,15.30
2023-02-06T19:42:05.647Z,22.70
2023-02-06T19:44:35.672Z,22.10
2023-02-06T19:47:03.436Z,17.17
2023-02-06T19:49:31.332Z,20.40
2023-02-06T19:51:58.406Z,24.10
2023-02-06T19:54:25.693Z,16.23
2023-02-06T19:56:52.767Z,17.93
2023-02-06T19:59:26.451Z,16.27
2023-02-06T20:02:00.107Z,21.17
2023-02-06T20:04:34.635Z,19.07
2023-02-06T20:07:02.568Z,26.10
2023-02-06T20:09:30.478Z,21.67
2023-02-06T20:11:58.101Z,16.83
2023-02-06T20:14:26.800Z,20.77
2023-02-06T20:16:54.054Z,19.00
2023-02-06T20:19:27.997Z,37.77
2023-02-06T20:21:58.777Z,22.63
2023-02-06T20:24:30.192Z,27.47
2023-02-06T20:27:06.090Z,24.53
2023-02-06T20:29:38.927Z,19.57
2023-02-06T20:32:07.202Z,18.50
2023-02-06T20:34:35.449Z,16.63
2023-02-06T20:37:05.645Z,16.47
2023-02-06T20:39:32.970Z,18.73
2023-02-06T20:41:59.997Z,19.17
2023-02-06T20:44:27.397Z,17.13
2023-02-06T20:46:54.407Z,16.60
2023-02-06T20:49:27.661Z,20.63
2023-02-06T20:51:54.865Z,17.40
2023-02-06T20:54:21.798Z,16.57
2023-02-06T20:56:49.788Z,17.80
2023-02-06T20:59:19.226Z,20.10
2023-02-06T21:01:46.608Z,19.90
2023-02-06T21:04:15.799Z,24.17
2023-02-06T21:06:44.526Z,26.13
2023-02-06T21:09:12.379Z,19.03
2023-02-06T21:11:50.794Z,17.60
2023-02-06T21:14:19.334Z,16.23
2023-02-06T21:16:46.722Z,17.50
2023-02-06T21:19:22.481Z,21.10
2023-02-06T21:21:49.734Z,16.80
2023-02-06T21:24:17.903Z,28.27
2023-02-06T21:26:45.091Z,23.30
2023-02-06T21:29:14.272Z,15.33
2023-02-06T21:31:42.288Z,22.53
2023-02-06T21:34:18.677Z,19.50
2023-02-06T21:36:46.420Z,16.23
2023-02-06T21:39:20.440Z,20.47
2023-02-06T21:41:51.627Z,23.17
2023-02-06T21:44:18.864Z,20.17
2023-02-06T21:46:46.138Z,17.33
2023-02-06T21:49:13.659Z,20.07
2023-02-06T21:51:40.725Z,15.43
2023-02-06T21:54:08.718Z,23.70
2023-02-06T21:56:38.238Z,19.97
2023-02-06T21:59:06.383Z,18.13
2023-02-06T22:01:34.327Z,17.17
2023-02-06T22:04:02.862Z,56.13
2023-02-06T22:06:30.085Z,36.97
2023-02-06T22:09:05.125Z,20.47
2023-02-06T22:11:32.423Z,18.00
2023-02-06T22:14:09.871Z,13.73
2023-02-06T22:16:37.127Z,13.33
2023-02-06T22:19:05.636Z,17.20
2023-02-06T22:21:34.416Z,14.53
2023-02-06T22:24:07.044Z,18.33
2023-02-06T22:26:38.696Z,17.67
2023-02-06T22:29:07.691Z,14.43
2023-02-06T22:31:35.353Z,15.87
2023-02-06T22:34:02.876Z,23.00
2023-02-06T22:36:32.836Z,19.40
2023-02-06T22:39:08.349Z,18.70
2023-02-06T22:41:40.603Z,17.27
2023-02-06T22:44:08.409Z,17.27
2023-02-06T22:46:38.556Z,20.03
2023-02-06T22:49:08.321Z,17.43
2023-02-06T22:51:36.631Z,19.33
2023-02-06T22:54:04.473Z,25.70
2023-02-06T22:56:37.067Z,27.30
2023-02-06T22:59:12.099Z,20.50
2023-02-06T23:01:48.363Z,15.67
2023-02-06T23:04:27.555Z,20.50
2023-02-06T23:06:54.814Z,31.67
2023-02-06T23:09:26.577Z,21.13
2023-02-06T23:11:54.163Z,18.17
2023-02-06T23:14:21.681Z,20.97
2023-02-06T23:16:48.913Z,35.83
2023-02-06T23:19:17.286Z,19.63
2023-02-06T23:21:47.137Z,20.20
2023-02-06T23:24:16.105Z,24.03
2023-02-06T23:26:45.640Z,20.27
2023-02-06T23:29:18.182Z,21.53
2023-02-06T23:31:47.468Z,21.37
2023-02-06T23:34:16.385Z,18.60
2023-02-06T23:36:44.016Z,20.87
2023-02-06T23:39:11.972Z,15.27
2023-02-06T23:41:39.182Z,20.67
2023-02-06T23:44:07.857Z,19.10
2023-02-06T23:46:37.464Z,22.50
2023-02-06T23:49:05.380Z,23.07
2023-02-06T23:51:32.982Z,17.67
2023-02-06T23:53:59.999Z,17.63
2023-02-06T23:56:30.044Z,17.47
2023-02-06T23:58:59.140Z,18.43
